Time;durP1;ratioP1;P1;durP2;ratioP2;P2;SDS_P1;SDS_P2;PMS_P1;PMS_P2;Temp;Humidity;BMP_temperature;BMP_pressure;BME280_temperature;BME280_humidity;BME280_pressure;Samples;Min_cycle;Max_cycle;Signal;HPM_P1;HPM_P2
2022/11/20 00:02:33;;;;;;;4.27;3.37;;;;;;;-3.68;100.00;101010.41;10453006;28;20070;-75
2022/11/20 00:07:36;;;;;;;9.13;4.35;;;;;;;-3.80;100.00;101015.25;10453115;28;20071;-75
2022/11/20 00:12:38;;;;;;;5.60;4.28;;;;;;;-3.96;100.00;101014.94;10452717;28;20073;-75
2022/11/20 00:17:39;;;;;;;10.68;4.53;;;;;;;-4.01;100.00;101007.19;10451217;28;20089;-74
2022/11/20 00:22:44;;;;;;;6.80;4.70;;;;;;;-4.14;100.00;101006.09;10461416;28;20067;-74
2022/11/20 00:27:45;;;;;;;7.95;5.20;;;;;;;-4.26;100.00;101013.47;10461125;28;20124;-75
2022/11/20 00:32:47;;;;;;;12.43;5.47;;;;;;;-4.18;100.00;101003.47;10460957;28;20127;-75
2022/11/20 00:37:53;;;;;;;8.90;5.77;;;;;;;-4.25;100.00;101004.16;10461287;28;20108;-75
2022/11/20 00:42:55;;;;;;;9.00;4.40;;;;;;;-4.33;100.00;101004.84;10460638;28;20317;-74
2022/11/20 00:47:56;;;;;;;3.77;3.40;;;;;;;-4.38;100.00;101006.41;10458438;28;20957;-74
2022/11/20 00:53:00;;;;;;;8.33;4.73;;;;;;;-4.44;100.00;101007.16;10461098;28;20074;-75
2022/11/20 00:58:01;;;;;;;6.00;4.97;;;;;;;-4.43;100.00;101006.31;10459919;28;20778;-74
2022/11/20 01:03:03;;;;;;;10.37;4.27;;;;;;;-4.48;100.00;101005.34;10460787;28;20074;-75
2022/11/20 01:08:06;;;;;;;6.85;4.53;;;;;;;-4.57;100.00;101005.16;10469313;28;20125;-75
2022/11/20 01:18:27;;;;;;;11.00;5.15;;;;;;;-4.61;100.00;101005.91;10456385;28;20084;-74
2022/11/20 01:23:37;;;;;;;7.03;5.53;;;;;;;-4.72;100.00;100996.31;10458450;28;20489;-76
2022/11/20 01:28:40;;;;;;;8.38;5.55;;;;;;;-4.69;100.00;101011.69;10458279;28;20135;-75
2022/11/20 01:33:43;;;;;;;6.22;5.00;;;;;;;-4.51;100.00;101005.28;10458851;28;20077;-75
2022/11/20 01:38:47;;;;;;;7.93;5.82;;;;;;;-4.45;100.00;100997.78;10458141;28;20129;-74
2022/11/20 01:43:49;;;;;;;7.50;5.75;;;;;;;-4.51;100.00;100982.38;10457957;28;20074;-74
2022/11/20 01:48:59;;;;;;;11.32;7.03;;;;;;;-4.62;100.00;100997.38;10456043;28;20094;-74
2022/11/20 01:54:14;;;;;;;9.40;7.20;;;;;;;-4.57;100.00;100992.41;10457862;28;20071;-74
2022/11/20 01:59:20;;;;;;;12.82;9.57;;;;;;;-4.62;100.00;101001.66;10457164;28;20540;-75
2022/11/20 02:04:25;;;;;;;14.32;11.18;;;;;;;-4.66;100.00;100999.03;10457068;28;20135;-73
2022/11/20 02:09:28;;;;;;;12.73;8.63;;;;;;;-4.46;100.00;100988.41;10457482;28;20065;-74
2022/11/20 02:14:30;;;;;;;18.80;10.52;;;;;;;-4.45;100.00;100987.59;10456639;28;20071;-70
2022/11/20 02:19:32;;;;;;;12.70;8.98;;;;;;;-4.32;100.00;100987.84;10413042;28;20225;-70
2022/11/20 02:24:37;;;;;;;14.93;9.60;;;;;;;-4.27;100.00;100982.00;10414824;28;20067;-70
2022/11/20 02:29:46;;;;;;;20.25;12.10;;;;;;;-4.23;100.00;100980.41;10414610;28;20070;-69
2022/11/20 02:34:48;;;;;;;18.55;10.35;;;;;;;-4.21;100.00;100976.19;10414707;28;20070;-70
2022/11/20 02:39:52;;;;;;;11.23;7.13;;;;;;;-4.16;100.00;100982.25;10414099;28;20083;-69
2022/11/20 02:44:54;;;;;;;9.45;6.25;;;;;;;-4.14;100.00;100977.19;10413547;28;20076;-69
2022/11/20 02:49:56;;;;;;;10.60;6.57;;;;;;;-4.06;100.00;100977.34;10412882;28;20475;-69
2022/11/20 02:55:00;;;;;;;12.57;6.53;;;;;;;-3.92;100.00;100991.22;10413675;28;20713;-69
2022/11/20 03:00:02;;;;;;;7.47;6.28;;;;;;;-3.81;100.00;100978.69;10413329;28;20364;-69
2022/11/20 03:05:04;;;;;;;7.22;5.93;;;;;;;-3.74;100.00;100972.00;10413515;28;20468;-69
2022/11/20 03:10:09;;;;;;;11.70;5.72;;;;;;;-3.69;100.00;100967.88;10412919;28;20062;-70
2022/11/20 03:15:11;;;;;;;10.10;6.78;;;;;;;-3.64;100.00;100966.25;10412949;28;20085;-70
2022/11/20 03:20:13;;;;;;;8.32;4.72;;;;;;;-3.57;100.00;100971.44;10410919;28;20090;-69
2022/11/20 03:25:16;;;;;;;6.60;5.07;;;;;;;-3.50;100.00;100965.63;10412489;28;20114;-69
2022/11/20 03:30:18;;;;;;;14.05;6.43;;;;;;;-3.46;100.00;100954.63;10412399;28;20067;-69
2022/11/20 03:35:20;;;;;;;8.30;5.45;;;;;;;-3.43;100.00;100952.16;10412513;28;20068;-69
2022/11/20 03:40:23;;;;;;;6.93;5.20;;;;;;;-3.39;100.00;100943.72;10411667;28;20438;-69
2022/11/20 03:45:25;;;;;;;8.45;4.90;;;;;;;-3.41;100.00;100931.75;10411256;28;20117;-70
2022/11/20 03:50:28;;;;;;;10.27;6.07;;;;;;;-3.41;100.00;100932.63;10408894;28;20090;-70
2022/11/20 03:55:31;;;;;;;7.22;5.95;;;;;;;-3.46;100.00;100934.22;10411185;28;20068;-70
2022/11/20 04:00:33;;;;;;;8.05;5.55;;;;;;;-3.53;100.00;100925.59;10411502;28;20139;-70
2022/11/20 04:05:35;;;;;;;7.93;5.60;;;;;;;-3.54;100.00;100913.69;10411199;28;20068;-69
2022/11/20 04:10:38;;;;;;;11.07;6.65;;;;;;;-3.53;100.00;100922.19;10411267;28;20130;-69
2022/11/20 04:15:40;;;;;;;13.55;6.78;;;;;;;-3.49;100.00;100924.00;10411038;28;20078;-70
2022/11/20 04:20:41;;;;;;;10.60;6.63;;;;;;;-3.50;100.00;100927.34;10408786;28;20082;-69
2022/11/20 04:25:44;;;;;;;8.48;4.88;;;;;;;-3.51;100.00;100926.50;10411646;28;20162;-70
2022/11/20 04:30:47;;;;;;;9.52;5.72;;;;;;;-3.48;100.00;100915.50;10411057;28;20075;-69
2022/11/20 04:35:49;;;;;;;9.13;6.13;;;;;;;-3.53;100.00;100917.94;10411095;28;20067;-71
2022/11/20 04:40:52;;;;;;;11.70;5.75;;;;;;;-3.60;100.00;100916.13;10410719;28;20142;-70
2022/11/20 04:45:54;;;;;;;9.75;5.60;;;;;;;-3.54;100.00;100910.28;10411023;28;20426;-70
2022/11/20 04:50:56;;;;;;;8.45;5.38;;;;;;;-3.47;100.00;100907.00;10409005;28;20139;-70
2022/11/20 04:56:02;;;;;;;8.35;5.35;;;;;;;-3.47;100.00;100907.00;10410225;28;20507;-70
2022/11/20 05:01:06;;;;;;;11.00;6.05;;;;;;;-3.43;100.00;100903.66;10410555;28;20086;-71
2022/11/20 05:06:10;;;;;;;10.30;6.30;;;;;;;-3.42;100.00;100900.25;10414811;28;20079;-70
2022/11/20 05:11:15;;;;;;;16.17;8.85;;;;;;;-3.50;100.00;100894.19;10418499;28;20068;-70
2022/11/20 05:16:20;;;;;;;16.38;9.93;;;;;;;-3.49;100.00;100888.25;10417619;28;20065;-70
2022/11/20 05:21:22;;;;;;;17.95;9.93;;;;;;;-3.46;100.00;100887.44;10415120;28;20132;-70
2022/11/20 05:26:26;;;;;;;9.77;7.28;;;;;;;-3.44;100.00;100881.53;10417304;28;20524;-69
2022/11/20 05:31:27;;;;;;;19.05;10.73;;;;;;;-3.36;100.00;100876.53;10416930;28;20076;-70
2022/11/20 05:36:30;;;;;;;17.38;11.15;;;;;;;-3.32;100.00;100872.34;10417055;28;20071;-69
2022/11/20 05:41:34;;;;;;;17.63;10.63;;;;;;;-3.29;100.00;100874.97;10416403;28;20093;-70
2022/11/20 05:46:37;;;;;;;17.48;10.15;;;;;;;-3.16;100.00;100892.16;10416327;28;20063;-70
2022/11/20 05:51:39;;;;;;;20.80;10.90;;;;;;;-3.07;100.00;100893.13;10414079;28;20144;-69
2022/11/20 05:56:42;;;;;;;14.60;8.97;;;;;;;-2.92;100.00;100898.47;10415920;28;20091;-69
2022/11/20 06:01:43;;;;;;;17.95;11.82;;;;;;;-2.79;100.00;100901.19;10415996;28;20084;-70
2022/11/20 06:06:45;;;;;;;19.87;12.57;;;;;;;-2.75;100.00;100914.03;10416045;28;20080;-69
2022/11/20 06:11:48;;;;;;;20.95;11.15;;;;;;;-2.69;100.00;100913.25;10415530;28;20670;-69
2022/11/20 06:16:50;;;;;;;18.42;11.10;;;;;;;-2.53;100.00;100909.19;10415380;28;20579;-69
2022/11/20 06:21:51;;;;;;;18.60;9.82;;;;;;;-2.48;100.00;100904.16;10412780;28;20077;-70
2022/11/20 06:26:55;;;;;;;19.23;8.25;;;;;;;-2.40;100.00;100909.38;10415013;28;20071;-69
2022/11/20 06:31:56;;;;;;;15.43;9.45;;;;;;;-2.29;100.00;100907.78;10414517;28;20064;-70
2022/11/20 06:36:58;;;;;;;15.37;8.87;;;;;;;-2.22;100.00;100911.28;10415100;28;20072;-70
2022/11/20 06:42:01;;;;;;;17.08;9.20;;;;;;;-2.13;100.00;100888.38;10414496;28;20544;-71
2022/11/20 06:47:03;;;;;;;17.17;11.07;;;;;;;-2.04;100.00;100891.88;10414126;28;20416;-69
2022/11/20 06:52:05;;;;;;;12.77;8.23;;;;;;;-2.00;100.00;100883.38;10411570;28;20490;-70
2022/11/20 06:57:08;;;;;;;11.68;7.75;;;;;;;-2.07;100.00;100885.03;10413677;28;20090;-69
2022/11/20 07:02:11;;;;;;;15.65;7.65;;;;;;;-2.00;100.00;100891.06;10413537;28;20447;-70
2022/11/20 07:07:13;;;;;;;12.25;7.60;;;;;;;-1.98;100.00;100884.28;10413096;28;20436;-70
2022/11/20 07:12:16;;;;;;;13.60;8.33;;;;;;;-1.90;100.00;100900.56;10413063;28;20482;-70
2022/11/20 07:17:18;;;;;;;11.18;6.90;;;;;;;-1.95;100.00;100876.63;10413148;28;20382;-70
2022/11/20 07:22:21;;;;;;;19.83;7.72;;;;;;;-1.94;100.00;100878.34;10410490;28;20135;-70
2022/11/20 07:27:24;;;;;;;9.88;6.97;;;;;;;-1.88;100.00;100870.72;10412206;28;20531;-69
2022/11/20 07:32:26;;;;;;;10.57;6.97;;;;;;;-1.81;100.00;100875.03;10412201;28;20061;-69
2022/11/20 07:37:27;;;;;;;15.15;8.32;;;;;;;-1.78;100.00;100873.38;10412468;28;20112;-69
2022/11/20 07:42:31;;;;;;;11.10;6.40;;;;;;;-1.72;100.00;100863.16;10412364;28;20088;-69
2022/11/20 07:47:36;;;;;;;13.38;8.32;;;;;;;-1.64;100.00;100861.53;10412157;28;20505;-69
2022/11/20 07:52:38;;;;;;;13.68;8.35;;;;;;;-1.59;100.00;100867.56;10410348;28;20684;-68
2022/11/20 07:57:41;;;;;;;12.02;7.03;;;;;;;-1.50;100.00;100874.47;10411617;28;20094;-68
2022/11/20 08:02:43;;;;;;;10.68;7.00;;;;;;;-1.38;100.00;100868.56;10412063;28;20081;-69
2022/11/20 08:07:45;;;;;;;9.55;6.43;;;;;;;-1.28;100.00;100879.75;10405328;28;20102;-69
2022/11/20 08:18:13;;;;;;;13.50;7.05;;;;;;;-0.85;100.00;100881.75;10408142;28;20513;-68
2022/11/20 08:23:15;;;;;;;10.32;7.45;;;;;;;-0.92;100.00;100873.13;10410793;28;20454;-74
2022/11/20 08:28:18;;;;;;;17.10;9.50;;;;;;;-0.65;100.00;100875.88;10406058;28;20519;-74
2022/11/20 08:33:20;;;;;;;18.95;9.48;;;;;;;-0.56;100.00;100865.63;10411008;28;20109;-74
2022/11/20 08:38:21;;;;;;;15.50;9.07;;;;;;;-0.43;100.00;100871.69;10411426;28;20063;-75
2022/11/20 08:43:26;;;;;;;15.63;8.67;;;;;;;-0.27;100.00;100864.88;10419006;28;20062;-74
2022/11/20 08:48:27;;;;;;;13.77;8.68;;;;;;;-0.08;100.00;100870.06;10417268;28;20314;-73
2022/11/20 08:53:29;;;;;;;8.20;5.97;;;;;;;-0.12;100.00;100860.66;10420146;28;20075;-75
2022/11/20 08:58:32;;;;;;;8.88;6.57;;;;;;;0.01;100.00;100863.22;10419908;28;20086;-74
2022/11/20 09:03:34;;;;;;;16.67;8.85;;;;;;;0.10;100.00;100865.84;10418270;28;20518;-73
2022/11/20 09:08:36;;;;;;;14.20;8.88;;;;;;;0.10;100.00;100855.56;10414772;28;20067;-77
2022/11/20 09:13:41;;;;;;;;;;;;;;;0.24;100.00;100853.00;10419045;28;20069;-66
2022/11/20 09:18:42;;;;;;;14.10;9.13;;;;;;;0.32;100.00;100853.00;10416324;28;19980;-65
2022/11/20 09:23:46;;;;;;;7.73;5.70;;;;;;;0.33;100.00;100852.13;10418763;28;20069;-66
2022/11/20 09:28:49;;;;;;;18.92;8.90;;;;;;;0.46;100.00;100842.72;10418182;28;20093;-66
2022/11/20 09:33:51;;;;;;;15.98;9.70;;;;;;;0.61;100.00;100831.56;10418219;28;20391;-66
2022/11/20 09:38:53;;;;;;;17.27;9.65;;;;;;;0.68;100.00;100822.19;10418247;28;20140;-66
2022/11/20 09:44:10;;;;;;;;;;;;;;;0.69;100.00;100814.47;10417969;28;20078;-66
2022/11/20 09:49:30;;;;;;;24.45;12.02;;;;;;;0.74;100.00;100812.75;10414736;28;20000;-66
2022/11/20 09:54:38;;;;;;;25.65;11.65;;;;;;;0.79;100.00;100809.31;10417514;28;20065;-66
2022/11/20 09:59:44;;;;;;;33.67;13.50;;;;;;;0.95;100.00;100803.25;10417104;28;20091;-67
2022/11/20 10:05:00;;;;;;;34.72;13.05;;;;;;;1.00;100.00;100793.81;10416719;28;20072;-66
2022/11/20 10:10:01;;;;;;;12.68;6.93;;;;;;;0.87;100.00;100771.59;10414076;28;20074;-67
2022/11/20 10:15:25;;;;;;;30.00;11.38;;;;;;;0.98;100.00;100762.13;10414598;28;20064;-66
2022/11/20 10:20:41;;;;;;;22.35;11.90;;;;;;;1.25;100.00;100737.16;10412346;28;20078;-67
2022/11/20 10:26:00;;;;;;;25.83;11.93;;;;;;;1.42;100.00;100731.06;10415229;28;20107;-67
2022/11/20 10:31:12;;;;;;;32.50;13.07;;;;;;;1.64;100.00;100739.50;10416842;28;20060;-66
2022/11/20 10:36:22;;;;;;;37.20;14.68;;;;;;;1.38;100.00;100724.22;10415592;28;20055;-66
2022/11/20 10:41:30;;;;;;;26.92;13.70;;;;;;;1.36;100.00;100707.94;10415653;28;20091;-65
2022/11/20 10:46:44;;;;;;;38.50;18.63;;;;;;;1.69;100.00;100690.59;10415556;28;20203;-66
2022/11/20 10:52:03;;;;;;;37.60;15.15;;;;;;;1.38;100.00;100695.94;10413135;28;20063;-66
2022/11/20 10:57:21;;;;;;;23.17;11.27;;;;;;;1.45;100.00;100682.19;10414823;28;20603;-66
2022/11/20 11:02:33;;;;;;;31.70;14.40;;;;;;;1.69;100.00;100670.00;10414250;28;20091;-66
2022/11/20 11:07:40;;;;;;;44.42;19.50;;;;;;;1.86;100.00;100662.13;10415069;28;20072;-66
2022/11/20 11:12:47;;;;;;;28.50;15.55;;;;;;;1.61;100.00;100664.06;10413362;28;20081;-66
2022/11/20 11:17:52;;;;;;;26.15;13.63;;;;;;;1.63;100.00;100659.75;10412974;28;20549;-66
2022/11/20 11:22:56;;;;;;;36.35;17.52;;;;;;;1.85;100.00;100657.00;10414459;28;20090;-66
2022/11/20 11:28:03;;;;;;;33.80;16.90;;;;;;;2.00;100.00;100659.44;10414233;28;20540;-66
2022/11/20 11:33:11;;;;;;;38.55;17.52;;;;;;;2.02;100.00;100652.53;10414190;28;20123;-66
2022/11/20 11:38:20;;;;;;;32.00;17.58;;;;;;;2.01;100.00;100642.25;10414057;28;20066;-65
2022/11/20 11:48:58;;;;;;;33.65;16.63;;;;;;;1.97;100.00;100618.28;10411297;28;20091;-66
2022/11/20 11:54:06;;;;;;;25.23;12.15;;;;;;;2.02;100.00;100606.19;10413493;28;20400;-66
2022/11/20 11:59:21;;;;;;;36.30;16.42;;;;;;;2.16;100.00;100602.63;10412898;28;20092;-67
2022/11/20 12:04:43;;;;;;;30.42;14.05;;;;;;;2.23;100.00;100599.13;10413893;28;20121;-67
2022/11/20 12:09:52;;;;;;;22.00;10.63;;;;;;;2.35;100.00;100574.06;10413289;28;20056;-66
2022/11/20 12:14:57;;;;;;;25.23;12.40;;;;;;;2.26;100.00;100546.72;10417583;28;20072;-66
2022/11/20 12:20:00;;;;;;;27.55;13.05;;;;;;;2.37;100.00;100546.59;10419352;28;20080;-66
2022/11/20 12:25:12;;;;;;;25.63;12.77;;;;;;;2.45;100.00;100534.44;10421895;28;20091;-66
2022/11/20 12:30:18;;;;;;;31.08;14.07;;;;;;;2.60;100.00;100524.81;10421264;28;20053;-66
2022/11/20 12:35:42;;;;;;;30.95;15.93;;;;;;;2.64;100.00;100521.31;10421064;28;20059;-66
2022/11/20 12:40:56;;;;;;;20.48;10.20;;;;;;;2.67;100.00;100506.66;10420601;28;20075;-66
2022/11/20 12:46:23;;;;;;;33.13;13.32;;;;;;;2.72;100.00;100498.84;10416634;28;20066;-66
2022/11/20 12:51:49;;;;;;;33.42;15.70;;;;;;;2.95;100.00;100495.91;10407406;28;20511;-66
2022/11/20 12:57:02;;;;;;;28.23;14.02;;;;;;;3.04;100.00;100476.88;10409998;28;20147;-66
2022/11/20 13:02:30;;;;;;;39.80;16.50;;;;;;;3.27;100.00;100449.81;10380985;28;20448;-65
2022/11/20 13:07:36;;;;;;;30.60;14.50;;;;;;;3.22;100.00;100433.59;10419855;28;20063;-65
2022/11/20 13:12:47;;;;;;;46.75;18.48;;;;;;;3.42;100.00;100419.47;10419561;28;20105;-65
2022/11/20 13:17:57;;;;;;;23.52;10.70;;;;;;;3.40;100.00;100410.91;10418025;28;20476;-66
2022/11/20 13:23:01;;;;;;;37.35;15.80;;;;;;;3.51;100.00;100408.09;10419175;28;20537;-65
2022/11/20 13:28:29;;;;;;;36.45;16.65;;;;;;;3.55;100.00;100395.13;10415811;28;20060;-66
2022/11/20 13:33:37;;;;;;;26.23;11.50;;;;;;;3.46;100.00;100387.56;10418682;28;20042;-67
2022/11/20 13:38:48;;;;;;;40.55;18.20;;;;;;;3.56;100.00;100376.16;10419012;28;20071;-66
2022/11/20 13:43:53;;;;;;;35.40;15.82;;;;;;;3.60;100.00;100364.88;10418453;28;20359;-65
2022/11/20 13:48:56;;;;;;;35.17;16.05;;;;;;;3.60;100.00;100359.72;10414168;28;20497;-65
2022/11/20 13:54:31;;;;;;;35.30;13.60;;;;;;;3.67;100.00;100349.28;10417408;28;20060;-67
2022/11/20 13:59:57;;;;;;;38.90;16.42;;;;;;;3.80;100.00;100342.97;10417035;28;20516;-66
2022/11/20 14:05:02;;;;;;;33.38;15.38;;;;;;;3.79;100.00;100338.69;10417288;28;20090;-65
2022/11/20 14:10:06;;;;;;;42.22;18.30;;;;;;;3.84;100.00;100328.28;10417497;28;20100;-65
2022/11/20 14:15:27;;;;;;;34.80;14.60;;;;;;;3.80;100.00;100308.56;10417041;28;20049;-66
2022/11/20 14:20:31;;;;;;;40.70;17.17;;;;;;;3.86;100.00;100309.28;10412687;28;20132;-65
2022/11/20 14:25:35;;;;;;;26.05;13.07;;;;;;;3.77;100.00;100300.91;10387445;28;20050;-66
2022/11/20 14:30:44;;;;;;;33.05;15.57;;;;;;;3.79;100.00;100299.13;10415627;28;20513;-68
2022/11/20 14:35:50;;;;;;;34.92;15.77;;;;;;;3.71;100.00;100295.00;10414972;28;20064;-71
2022/11/20 14:40:54;;;;;;;37.33;14.75;;;;;;;3.68;100.00;100289.03;10415246;28;20080;-72
2022/11/20 14:46:03;;;;;;;32.60;14.93;;;;;;;3.62;100.00;100276.28;10375125;28;20054;-73
2022/11/20 14:51:05;;;;;;;33.08;13.85;;;;;;;3.61;100.00;100262.53;10386139;28;20099;-74
2022/11/20 14:56:09;;;;;;;32.53;14.45;;;;;;;3.60;100.00;100248.78;10414996;28;20088;-74
2022/11/20 15:01:14;;;;;;;35.47;15.02;;;;;;;3.62;100.00;100232.44;10415389;28;20092;-73
2022/11/20 15:06:27;;;;;;;34.22;14.80;;;;;;;3.64;100.00;100205.69;10414650;28;20496;-74
2022/11/20 15:11:34;;;;;;;21.63;11.98;;;;;;;3.64;100.00;100195.38;10414478;28;20061;-70
2022/11/20 15:16:36;;;;;;;30.55;11.98;;;;;;;3.57;100.00;100184.34;10413400;28;20507;-71
2022/11/20 15:21:38;;;;;;;27.77;11.57;;;;;;;3.59;100.00;100187.72;10410297;28;20538;-72
2022/11/20 15:26:41;;;;;;;31.05;14.70;;;;;;;3.59;100.00;100169.66;10413606;28;20060;-73
2022/11/20 15:31:44;;;;;;;34.92;15.02;;;;;;;3.63;100.00;100161.84;10412851;28;20477;-72
2022/11/20 15:36:46;;;;;;;124.75;22.83;;;;;;;3.68;100.00;100160.88;10413790;28;20096;-73
2022/11/20 15:41:49;;;;;;;35.78;15.82;;;;;;;3.72;100.00;100141.84;10411327;28;20119;-72
2022/11/20 15:46:51;;;;;;;25.23;13.02;;;;;;;3.82;100.00;100128.69;10392214;28;20053;-72
2022/11/20 15:51:53;;;;;;;29.75;13.25;;;;;;;3.84;100.00;100129.50;10410526;28;20463;-73
2022/11/20 15:56:56;;;;;;;30.33;13.63;;;;;;;3.86;100.00;100107.91;10412652;28;20543;-72
2022/11/20 16:01:59;;;;;;;27.90;12.55;;;;;;;3.91;100.00;100107.81;10413696;28;20053;-73
2022/11/20 16:07:01;;;;;;;29.07;15.10;;;;;;;3.94;100.00;100094.78;10408018;28;20041;-73
2022/11/20 16:12:06;;;;;;;30.67;13.00;;;;;;;4.02;100.00;100088.59;10411232;28;20295;-71
2022/11/20 16:17:08;;;;;;;27.02;13.73;;;;;;;4.13;100.00;100086.56;10406151;28;20096;-73
2022/11/20 16:22:12;;;;;;;22.13;10.83;;;;;;;4.18;100.00;100083.84;10409566;28;20690;-74
2022/11/20 16:27:15;;;;;;;27.23;12.82;;;;;;;4.28;100.00;100071.53;10413074;28;20114;-73
2022/11/20 16:32:16;;;;;;;22.42;10.38;;;;;;;4.36;100.00;100061.81;10413053;28;20053;-73
2022/11/20 16:37:18;;;;;;;16.63;8.20;;;;;;;4.47;100.00;100059.75;10413575;28;20468;-73
2022/11/20 16:42:22;;;;;;;8.83;4.13;;;;;;;4.64;100.00;100042.91;10413052;28;20399;-72
2022/11/20 16:47:24;;;;;;;20.55;10.27;;;;;;;4.58;100.00;100033.59;10410968;28;20704;-72
2022/11/20 16:52:25;;;;;;;16.43;7.80;;;;;;;4.73;100.00;100018.50;10409573;28;20049;-70
2022/11/20 16:57:32;;;;;;;11.07;6.47;;;;;;;4.82;100.00;100025.97;10410897;28;20307;-73
2022/11/20 17:02:33;;;;;;;10.40;6.30;;;;;;;4.87;100.00;100018.94;10416594;28;20076;-72
2022/11/20 17:07:38;;;;;;;9.20;5.65;;;;;;;5.02;100.00;100002.06;10416023;28;20456;-70
2022/11/20 17:12:40;;;;;;;5.95;4.20;;;;;;;5.10;100.00;99988.03;10417521;28;20084;-71
2022/11/20 17:17:42;;;;;;;10.35;6.38;;;;;;;5.15;100.00;99980.97;10417764;28;20064;-77
2022/11/20 17:22:44;;;;;;;4.05;3.70;;;;;;;5.29;100.00;99967.56;10414428;28;20046;-72
2022/11/20 17:27:49;;;;;;;10.52;6.10;;;;;;;5.35;100.00;99949.25;10416954;28;20150;-72
2022/11/20 17:32:51;;;;;;;6.97;6.00;;;;;;;5.50;100.00;99945.25;10416915;28;20091;-72
2022/11/20 17:37:52;;;;;;;6.85;6.15;;;;;;;5.72;100.00;99934.16;10417681;28;20595;-73
2022/11/20 17:42:55;;;;;;;11.90;5.88;;;;;;;5.99;100.00;99935.75;10416881;28;20153;-70
2022/11/20 17:47:58;;;;;;;6.72;5.00;;;;;;;6.11;100.00;99939.63;10415286;28;20520;-75
2022/11/20 17:53:00;;;;;;;5.95;5.18;;;;;;;6.28;100.00;99957.13;10416916;28;20469;-74
2022/11/20 17:58:06;;;;;;;11.73;6.75;;;;;;;6.35;100.00;99958.59;10416373;28;20485;-72
2022/11/20 18:03:08;;;;;;;16.77;7.88;;;;;;;6.46;100.00;99968.53;10416451;28;20103;-68
2022/11/20 18:08:11;;;;;;;14.30;6.03;;;;;;;6.46;100.00;99976.28;10416215;28;20110;-70
2022/11/20 18:13:14;;;;;;;8.82;5.80;;;;;;;6.58;100.00;99982.75;10416208;28;20046;-69
2022/11/20 18:18:17;;;;;;;9.55;4.35;;;;;;;6.64;100.00;100000.66;10413700;28;20115;-69
2022/11/20 18:23:19;;;;;;;7.80;5.15;;;;;;;6.53;100.00;100013.19;10415529;28;20045;-70
2022/11/20 18:28:23;;;;;;;13.25;6.25;;;;;;;6.51;100.00;100015.00;10415466;28;20115;-69
2022/11/20 18:33:25;;;;;;;18.58;6.32;;;;;;;6.52;100.00;100019.28;10415156;28;20049;-72
2022/11/20 18:38:26;;;;;;;13.45;7.78;;;;;;;6.46;100.00;100022.13;10414872;28;20083;-73
2022/11/20 18:48:50;;;;;;;10.77;6.95;;;;;;;6.32;100.00;100031.25;10412406;28;20118;-72
2022/11/20 18:53:51;;;;;;;7.90;5.28;;;;;;;6.32;100.00;100028.66;10415039;28;20113;-74
2022/11/20 18:58:55;;;;;;;15.45;7.75;;;;;;;6.28;100.00;100024.50;10413735;28;20057;-75
2022/11/20 19:03:57;;;;;;;18.48;9.25;;;;;;;6.22;100.00;100035.94;10413998;28;20100;-74
2022/11/20 19:09:00;;;;;;;18.30;10.85;;;;;;;6.20;100.00;100037.75;10413852;28;20049;-72
2022/11/20 19:14:04;;;;;;;18.02;8.77;;;;;;;6.24;100.00;100039.34;10414104;28;20125;-72
2022/11/20 19:19:07;;;;;;;17.90;9.98;;;;;;;6.15;100.00;100047.44;10411376;28;20069;-71
2022/11/20 19:24:09;;;;;;;21.98;9.77;;;;;;;6.07;100.00;100055.50;10412371;28;20041;-68
2022/11/20 19:29:15;;;;;;;11.48;7.40;;;;;;;6.04;100.00;100050.41;10412794;28;20052;-75
2022/11/20 19:34:16;;;;;;;21.92;10.77;;;;;;;5.99;100.00;100057.47;10414051;28;20066;-70
2022/11/20 19:39:19;;;;;;;15.77;9.60;;;;;;;6.04;100.00;100078.91;10414397;28;20607;-72
2022/11/20 19:44:22;;;;;;;22.15;9.52;;;;;;;6.00;100.00;100077.31;10414242;28;20048;-71
2022/11/20 19:49:24;;;;;;;16.58;10.23;;;;;;;6.02;100.00;100071.16;10410857;28;20497;-72
2022/11/20 19:54:26;;;;;;;14.55;7.95;;;;;;;6.08;100.00;100074.44;10412917;28;20045;-72
2022/11/20 19:59:29;;;;;;;14.55;9.85;;;;;;;5.92;100.00;100075.81;10413304;28;20057;-72
2022/11/20 20:04:31;;;;;;;22.05;11.00;;;;;;;5.84;100.00;100077.84;10413218;28;20073;-72
2022/11/20 20:09:34;;;;;;;26.30;11.30;;;;;;;5.81;100.00;100077.94;10413479;28;20103;-70
2022/11/20 20:14:37;;;;;;;19.98;10.35;;;;;;;5.73;100.00;100090.31;10413359;28;20045;-72
2022/11/20 20:19:38;;;;;;;20.30;10.45;;;;;;;5.80;100.00;100089.22;10411597;28;20096;-71
2022/11/20 20:24:40;;;;;;;18.23;10.90;;;;;;;5.80;100.00;100094.38;10413744;28;20078;-70
2022/11/20 20:29:44;;;;;;;20.73;9.98;;;;;;;5.78;100.00;100101.34;10412400;28;20101;-70
2022/11/20 20:34:46;;;;;;;18.33;9.10;;;;;;;5.85;100.00;100105.41;10414091;28;20574;-70
2022/11/20 20:39:47;;;;;;;16.88;8.23;;;;;;;5.92;100.00;100114.66;10420576;28;20119;-70
2022/11/20 20:45:06;;;;;;;16.73;7.03;;;;;;;5.83;100.00;100104.63;10420261;28;20053;-70
2022/11/20 20:50:12;;;;;;;10.63;4.82;;;;;;;5.76;100.00;100101.44;10417548;28;20053;-73
2022/11/20 20:55:14;;;;;;;13.55;5.05;;;;;;;5.77;100.00;100110.88;10419812;28;20048;-70
2022/11/20 21:00:17;;;;;;;9.50;4.10;;;;;;;5.78;100.00;100119.47;10419948;28;20545;-70
2022/11/20 21:05:19;;;;;;;13.23;4.68;;;;;;;5.77;100.00;100133.31;10420041;28;20425;-69
2022/11/20 21:10:22;;;;;;;17.92;4.40;;;;;;;5.83;100.00;100133.13;10419781;28;20054;-72
2022/11/20 21:15:25;;;;;;;17.70;4.40;;;;;;;5.78;100.00;100127.22;10419333;28;20418;-70
2022/11/20 21:25:46;;;;;;;12.27;4.57;;;;;;;5.80;100.00;100128.03;10419720;28;20050;-72
2022/11/20 21:30:49;;;;;;;12.25;3.95;;;;;;;5.69;100.00;100135.31;10419623;28;20064;-72
2022/11/20 21:35:51;;;;;;;11.65;4.32;;;;;;;5.64;100.00;100133.75;10419653;28;20053;-70
2022/11/20 21:40:52;;;;;;;13.53;5.93;;;;;;;5.62;100.00;100139.88;10418958;28;20103;-72
2022/11/20 21:46:01;;;;;;;17.23;4.82;;;;;;;5.64;100.00;100159.63;10417778;28;20376;-73
2022/11/20 21:51:04;;;;;;;15.65;6.15;;;;;;;5.59;100.00;100166.69;10416082;28;20436;-72
2022/11/20 21:56:07;;;;;;;22.08;5.80;;;;;;;5.53;100.00;100161.72;10417768;28;20594;-73
2022/11/20 22:01:15;;;;;;;21.48;5.38;;;;;;;5.47;100.00;100151.56;10417575;28;20053;-71
2022/11/20 22:06:18;;;;;;;19.40;5.00;;;;;;;5.37;100.00;100148.44;10417290;28;20053;-72
2022/11/20 22:11:22;;;;;;;20.60;5.53;;;;;;;5.27;100.00;100153.88;10417129;28;20057;-73
2022/11/20 22:16:25;;;;;;;16.08;5.32;;;;;;;5.24;100.00;100166.09;10417506;28;20107;-73
2022/11/20 22:21:30;;;;;;;15.60;5.05;;;;;;;5.27;100.00;100173.75;10414668;28;20050;-73
2022/11/20 22:26:36;;;;;;;15.02;5.20;;;;;;;5.32;100.00;100184.78;10416882;28;20082;-72
2022/11/20 22:31:39;;;;;;;18.00;4.15;;;;;;;5.32;100.00;100195.16;10416782;28;20542;-73
2022/11/20 22:36:41;;;;;;;23.40;4.30;;;;;;;5.32;100.00;100210.69;10416503;28;20508;-73
2022/11/20 22:41:43;;;;;;;11.55;4.78;;;;;;;5.30;100.00;100225.38;10416464;28;20096;-73
2022/11/20 22:46:46;;;;;;;21.73;6.05;;;;;;;5.29;100.00;100195.22;10416124;28;20054;-72
2022/11/20 22:51:47;;;;;;;19.13;5.50;;;;;;;5.24;100.00;100189.38;10413785;28;20061;-73
2022/11/20 22:56:49;;;;;;;7.07;4.38;;;;;;;5.13;100.00;100189.66;10415456;28;20057;-73
2022/11/20 23:01:52;;;;;;;20.67;4.65;;;;;;;4.98;100.00;100198.75;10414920;28;20096;-71
2022/11/20 23:06:55;;;;;;;19.92;5.32;;;;;;;4.95;100.00;100211.75;10415316;28;20362;-72
2022/11/20 23:11:57;;;;;;;22.25;5.90;;;;;;;4.96;100.00;100218.66;10414771;28;20061;-71
2022/11/20 23:17:00;;;;;;;17.07;5.80;;;;;;;5.08;100.00;100267.44;10415328;28;20099;-74
2022/11/20 23:22:01;;;;;;;10.00;4.45;;;;;;;5.15;100.00;100250.84;10412368;28;20426;-72
2022/11/20 23:27:03;;;;;;;10.75;4.07;;;;;;;5.19;100.00;100251.59;10414562;28;20112;-75